sensor_id;sensor_type;location;lat;lon;timestamp;P1;durP1;ratioP1;P2;durP2;ratioP2
4450;SDS011;2238;50.180;9.230;2023-02-26T00:02:22;3.47;;;3.17;;
4450;SDS011;2238;50.180;9.230;2023-02-26T00:05:22;3.23;;;2.93;;
4450;SDS011;2238;50.180;9.230;2023-02-26T00:08:23;4.43;;;3.77;;
4450;SDS011;2238;50.180;9.230;2023-02-26T00:11:24;2.83;;;2.50;;
4450;SDS011;2238;50.180;9.230;2023-02-26T00:14:25;3.33;;;3.10;;
4450;SDS011;2238;50.180;9.230;2023-02-26T00:17:47;4.40;;;3.23;;
4450;SDS011;2238;50.180;9.230;2023-02-26T00:20:55;2.83;;;2.63;;
4450;SDS011;2238;50.180;9.230;2023-02-26T00:23:56;2.97;;;2.73;;
4450;SDS011;2238;50.180;9.230;2023-02-26T00:26:57;3.20;;;2.90;;
4450;SDS011;2238;50.180;9.230;2023-02-26T00:29:58;3.00;;;2.80;;
4450;SDS011;2238;50.180;9.230;2023-02-26T00:32:59;3.27;;;3.07;;
4450;SDS011;2238;50.180;9.230;2023-02-26T00:36:02;3.50;;;3.20;;
4450;SDS011;2238;50.180;9.230;2023-02-26T00:42:36;3.43;;;3.13;;
4450;SDS011;2238;50.180;9.230;2023-02-26T00:45:37;3.93;;;3.00;;
4450;SDS011;2238;50.180;9.230;2023-02-26T00:48:46;3.40;;;3.10;;
4450;SDS011;2238;50.180;9.230;2023-02-26T00:52:13;4.13;;;3.37;;
4450;SDS011;2238;50.180;9.230;2023-02-26T00:55:24;3.50;;;3.20;;
4450;SDS011;2238;50.180;9.230;2023-02-26T00:58:24;6.53;;;3.17;;
4450;SDS011;2238;50.180;9.230;2023-02-26T01:01:25;4.63;;;4.03;;
4450;SDS011;2238;50.180;9.230;2023-02-26T01:04:25;4.17;;;3.87;;
4450;SDS011;2238;50.180;9.230;2023-02-26T01:07:26;5.50;;;3.70;;
4450;SDS011;2238;50.180;9.230;2023-02-26T01:10:29;4.33;;;3.90;;
4450;SDS011;2238;50.180;9.230;2023-02-26T01:13:30;4.70;;;4.17;;
4450;SDS011;2238;50.180;9.230;2023-02-26T01:16:33;4.03;;;3.40;;
4450;SDS011;2238;50.180;9.230;2023-02-26T01:19:51;3.60;;;3.30;;
4450;SDS011;2238;50.180;9.230;2023-02-26T01:22:59;4.87;;;3.50;;
4450;SDS011;2238;50.180;9.230;2023-02-26T01:26:09;4.90;;;3.27;;
4450;SDS011;2238;50.180;9.230;2023-02-26T01:29:19;5.20;;;4.40;;
4450;SDS011;2238;50.180;9.230;2023-02-26T01:32:31;3.83;;;2.90;;
4450;SDS011;2238;50.180;9.230;2023-02-26T01:35:51;4.07;;;3.73;;
4450;SDS011;2238;50.180;9.230;2023-02-26T01:39:05;8.20;;;3.70;;
4450;SDS011;2238;50.180;9.230;2023-02-26T01:42:11;3.47;;;2.87;;
4450;SDS011;2238;50.180;9.230;2023-02-26T01:45:32;7.20;;;3.70;;
4450;SDS011;2238;50.180;9.230;2023-02-26T01:48:56;4.50;;;3.57;;
4450;SDS011;2238;50.180;9.230;2023-02-26T01:51:59;3.13;;;2.83;;
4450;SDS011;2238;50.180;9.230;2023-02-26T01:55:03;3.40;;;3.10;;
4450;SDS011;2238;50.180;9.230;2023-02-26T01:58:04;6.33;;;3.43;;
4450;SDS011;2238;50.180;9.230;2023-02-26T02:01:05;6.20;;;3.57;;
4450;SDS011;2238;50.180;9.230;2023-02-26T02:04:09;5.80;;;3.07;;
4450;SDS011;2238;50.180;9.230;2023-02-26T02:07:12;4.53;;;2.97;;
4450;SDS011;2238;50.180;9.230;2023-02-26T02:10:13;4.30;;;2.87;;
4450;SDS011;2238;50.180;9.230;2023-02-26T02:26:34;3.37;;;3.17;;
4450;SDS011;2238;50.180;9.230;2023-02-26T02:32:57;3.90;;;3.13;;
4450;SDS011;2238;50.180;9.230;2023-02-26T02:36:02;3.80;;;3.20;;
4450;SDS011;2238;50.180;9.230;2023-02-26T02:39:15;3.40;;;3.10;;
4450;SDS011;2238;50.180;9.230;2023-02-26T02:48:48;4.83;;;2.93;;
4450;SDS011;2238;50.180;9.230;2023-02-26T02:52:07;7.87;;;3.37;;
4450;SDS011;2238;50.180;9.230;2023-02-26T02:55:16;3.03;;;2.50;;
4450;SDS011;2238;50.180;9.230;2023-02-26T02:58:30;5.00;;;3.20;;
4450;SDS011;2238;50.180;9.230;2023-02-26T03:01:35;3.67;;;3.07;;
4450;SDS011;2238;50.180;9.230;2023-02-26T03:04:38;4.70;;;2.87;;
4450;SDS011;2238;50.180;9.230;2023-02-26T03:07:42;4.10;;;2.60;;
4450;SDS011;2238;50.180;9.230;2023-02-26T03:10:52;2.80;;;2.60;;
4450;SDS011;2238;50.180;9.230;2023-02-26T03:13:52;5.50;;;2.77;;
4450;SDS011;2238;50.180;9.230;2023-02-26T03:23:31;5.90;;;2.50;;
4450;SDS011;2238;50.180;9.230;2023-02-26T03:26:43;3.23;;;2.93;;
4450;SDS011;2238;50.180;9.230;2023-02-26T03:29:56;2.90;;;2.60;;
4450;SDS011;2238;50.180;9.230;2023-02-26T03:33:03;3.23;;;2.93;;
4450;SDS011;2238;50.180;9.230;2023-02-26T03:36:26;3.67;;;3.37;;
4450;SDS011;2238;50.180;9.230;2023-02-26T03:39:42;3.33;;;3.13;;
4450;SDS011;2238;50.180;9.230;2023-02-26T03:42:54;3.40;;;2.90;;
4450;SDS011;2238;50.180;9.230;2023-02-26T03:46:01;3.37;;;3.07;;
4450;SDS011;2238;50.180;9.230;2023-02-26T03:49:08;4.60;;;2.80;;
4450;SDS011;2238;50.180;9.230;2023-02-26T03:52:12;4.13;;;3.00;;
4450;SDS011;2238;50.180;9.230;2023-02-26T03:55:16;3.70;;;2.83;;
4450;SDS011;2238;50.180;9.230;2023-02-26T03:58:20;3.30;;;2.83;;
4450;SDS011;2238;50.180;9.230;2023-02-26T04:01:22;3.53;;;3.23;;
4450;SDS011;2238;50.180;9.230;2023-02-26T04:07:46;4.00;;;3.63;;
4450;SDS011;2238;50.180;9.230;2023-02-26T04:10:52;4.00;;;3.70;;
4450;SDS011;2238;50.180;9.230;2023-02-26T04:13:58;9.70;;;3.87;;
4450;SDS011;2238;50.180;9.230;2023-02-26T04:16:58;6.00;;;3.50;;
4450;SDS011;2238;50.180;9.230;2023-02-26T04:19:59;6.67;;;3.77;;
4450;SDS011;2238;50.180;9.230;2023-02-26T04:22:59;4.10;;;3.17;;
4450;SDS011;2238;50.180;9.230;2023-02-26T04:26:00;3.77;;;3.37;;
4450;SDS011;2238;50.180;9.230;2023-02-26T04:29:01;5.33;;;4.27;;
4450;SDS011;2238;50.180;9.230;2023-02-26T04:32:01;4.43;;;3.80;;
4450;SDS011;2238;50.180;9.230;2023-02-26T04:35:02;3.60;;;3.30;;
4450;SDS011;2238;50.180;9.230;2023-02-26T04:38:03;3.50;;;3.20;;
4450;SDS011;2238;50.180;9.230;2023-02-26T04:41:04;3.80;;;3.10;;
4450;SDS011;2238;50.180;9.230;2023-02-26T04:44:05;7.23;;;3.83;;
4450;SDS011;2238;50.180;9.230;2023-02-26T04:47:06;4.00;;;3.60;;
4450;SDS011;2238;50.180;9.230;2023-02-26T04:50:07;3.60;;;3.30;;
4450;SDS011;2238;50.180;9.230;2023-02-26T04:53:08;3.90;;;3.50;;
4450;SDS011;2238;50.180;9.230;2023-02-26T04:56:09;4.73;;;3.70;;
4450;SDS011;2238;50.180;9.230;2023-02-26T04:59:09;3.10;;;2.90;;
4450;SDS011;2238;50.180;9.230;2023-02-26T05:02:10;5.73;;;4.13;;
4450;SDS011;2238;50.180;9.230;2023-02-26T05:05:11;4.20;;;3.83;;
4450;SDS011;2238;50.180;9.230;2023-02-26T05:08:12;3.83;;;3.37;;
4450;SDS011;2238;50.180;9.230;2023-02-26T05:11:13;4.40;;;4.00;;
4450;SDS011;2238;50.180;9.230;2023-02-26T05:14:14;3.47;;;3.23;;
4450;SDS011;2238;50.180;9.230;2023-02-26T05:17:15;3.97;;;3.57;;
4450;SDS011;2238;50.180;9.230;2023-02-26T05:20:16;5.77;;;3.63;;
4450;SDS011;2238;50.180;9.230;2023-02-26T05:23:17;4.50;;;3.47;;
4450;SDS011;2238;50.180;9.230;2023-02-26T05:26:17;4.07;;;3.50;;
4450;SDS011;2238;50.180;9.230;2023-02-26T05:29:18;5.00;;;3.80;;
4450;SDS011;2238;50.180;9.230;2023-02-26T05:32:18;3.93;;;3.00;;
4450;SDS011;2238;50.180;9.230;2023-02-26T05:35:19;5.67;;;3.70;;
4450;SDS011;2238;50.180;9.230;2023-02-26T05:38:19;7.40;;;4.00;;
4450;SDS011;2238;50.180;9.230;2023-02-26T05:41:20;5.40;;;3.70;;
4450;SDS011;2238;50.180;9.230;2023-02-26T05:44:22;5.30;;;3.60;;
4450;SDS011;2238;50.180;9.230;2023-02-26T05:47:23;3.73;;;3.43;;
4450;SDS011;2238;50.180;9.230;2023-02-26T05:50:24;5.10;;;3.47;;
4450;SDS011;2238;50.180;9.230;2023-02-26T05:53:25;4.07;;;3.67;;
4450;SDS011;2238;50.180;9.230;2023-02-26T05:56:26;5.07;;;3.73;;
4450;SDS011;2238;50.180;9.230;2023-02-26T05:59:26;4.33;;;3.93;;
4450;SDS011;2238;50.180;9.230;2023-02-26T06:02:27;4.10;;;3.20;;
4450;SDS011;2238;50.180;9.230;2023-02-26T06:05:28;4.77;;;3.63;;
4450;SDS011;2238;50.180;9.230;2023-02-26T06:08:28;5.47;;;3.93;;
4450;SDS011;2238;50.180;9.230;2023-02-26T06:11:29;4.07;;;3.43;;
4450;SDS011;2238;50.180;9.230;2023-02-26T06:14:30;3.67;;;3.40;;
4450;SDS011;2238;50.180;9.230;2023-02-26T06:17:31;6.33;;;3.97;;
4450;SDS011;2238;50.180;9.230;2023-02-26T06:20:32;3.90;;;3.60;;
4450;SDS011;2238;50.180;9.230;2023-02-26T06:23:32;5.90;;;4.20;;
4450;SDS011;2238;50.180;9.230;2023-02-26T06:26:33;6.50;;;4.63;;
4450;SDS011;2238;50.180;9.230;2023-02-26T06:29:33;4.77;;;4.33;;
4450;SDS011;2238;50.180;9.230;2023-02-26T06:32:36;4.70;;;4.30;;
4450;SDS011;2238;50.180;9.230;2023-02-26T06:35:36;4.70;;;4.00;;
4450;SDS011;2238;50.180;9.230;2023-02-26T06:38:37;3.93;;;3.63;;
4450;SDS011;2238;50.180;9.230;2023-02-26T06:41:38;6.60;;;3.70;;
4450;SDS011;2238;50.180;9.230;2023-02-26T06:44:38;4.40;;;3.77;;
4450;SDS011;2238;50.180;9.230;2023-02-26T06:47:39;5.33;;;4.83;;
4450;SDS011;2238;50.180;9.230;2023-02-26T06:50:39;3.83;;;3.53;;
4450;SDS011;2238;50.180;9.230;2023-02-26T06:53:40;5.30;;;3.57;;
4450;SDS011;2238;50.180;9.230;2023-02-26T06:56:41;4.50;;;4.10;;
4450;SDS011;2238;50.180;9.230;2023-02-26T06:59:41;5.50;;;3.87;;
4450;SDS011;2238;50.180;9.230;2023-02-26T07:02:42;3.73;;;3.40;;
4450;SDS011;2238;50.180;9.230;2023-02-26T07:05:43;4.00;;;3.43;;
4450;SDS011;2238;50.180;9.230;2023-02-26T07:08:44;6.37;;;4.67;;
4450;SDS011;2238;50.180;9.230;2023-02-26T07:11:45;5.30;;;4.00;;
4450;SDS011;2238;50.180;9.230;2023-02-26T07:14:45;4.27;;;3.80;;
4450;SDS011;2238;50.180;9.230;2023-02-26T07:17:46;5.13;;;3.80;;
4450;SDS011;2238;50.180;9.230;2023-02-26T07:20:49;5.03;;;4.53;;
4450;SDS011;2238;50.180;9.230;2023-02-26T07:23:50;4.63;;;4.20;;
4450;SDS011;2238;50.180;9.230;2023-02-26T07:26:51;4.93;;;3.70;;
4450;SDS011;2238;50.180;9.230;2023-02-26T07:29:51;7.53;;;4.80;;
4450;SDS011;2238;50.180;9.230;2023-02-26T07:32:52;4.30;;;4.00;;
4450;SDS011;2238;50.180;9.230;2023-02-26T07:35:53;5.80;;;4.53;;
4450;SDS011;2238;50.180;9.230;2023-02-26T07:38:54;6.43;;;5.70;;
4450;SDS011;2238;50.180;9.230;2023-02-26T07:41:54;6.30;;;5.30;;
4450;SDS011;2238;50.180;9.230;2023-02-26T07:44:55;8.00;;;4.70;;
4450;SDS011;2238;50.180;9.230;2023-02-26T07:47:55;3.70;;;3.47;;
4450;SDS011;2238;50.180;9.230;2023-02-26T07:50:56;3.80;;;3.50;;
4450;SDS011;2238;50.180;9.230;2023-02-26T07:53:56;5.50;;;4.07;;
4450;SDS011;2238;50.180;9.230;2023-02-26T07:56:57;9.30;;;3.90;;
4450;SDS011;2238;50.180;9.230;2023-02-26T07:59:58;4.10;;;3.70;;
4450;SDS011;2238;50.180;9.230;2023-02-26T08:02:58;5.33;;;3.87;;
4450;SDS011;2238;50.180;9.230;2023-02-26T08:05:59;5.50;;;3.63;;
4450;SDS011;2238;50.180;9.230;2023-02-26T08:09:00;4.37;;;3.40;;
4450;SDS011;2238;50.180;9.230;2023-02-26T08:12:01;3.87;;;3.57;;
4450;SDS011;2238;50.180;9.230;2023-02-26T08:15:03;3.37;;;3.10;;
4450;SDS011;2238;50.180;9.230;2023-02-26T08:18:04;3.00;;;2.80;;
4450;SDS011;2238;50.180;9.230;2023-02-26T08:21:05;3.20;;;3.00;;
4450;SDS011;2238;50.180;9.230;2023-02-26T08:24:05;4.03;;;3.73;;
4450;SDS011;2238;50.180;9.230;2023-02-26T08:27:06;5.53;;;3.10;;
4450;SDS011;2238;50.180;9.230;2023-02-26T08:30:07;5.10;;;4.17;;
4450;SDS011;2238;50.180;9.230;2023-02-26T08:33:08;3.40;;;3.10;;
4450;SDS011;2238;50.180;9.230;2023-02-26T08:36:09;5.33;;;2.50;;
4450;SDS011;2238;50.180;9.230;2023-02-26T08:39:10;4.23;;;3.90;;
4450;SDS011;2238;50.180;9.230;2023-02-26T08:42:10;3.77;;;3.30;;
4450;SDS011;2238;50.180;9.230;2023-02-26T08:45:11;3.83;;;3.53;;
4450;SDS011;2238;50.180;9.230;2023-02-26T08:48:12;4.47;;;3.13;;
4450;SDS011;2238;50.180;9.230;2023-02-26T08:51:12;3.67;;;3.07;;
4450;SDS011;2238;50.180;9.230;2023-02-26T08:54:13;7.23;;;3.53;;
4450;SDS011;2238;50.180;9.230;2023-02-26T08:57:15;4.70;;;3.80;;
4450;SDS011;2238;50.180;9.230;2023-02-26T09:00:16;3.30;;;3.00;;
4450;SDS011;2238;50.180;9.230;2023-02-26T09:03:18;2.80;;;2.60;;
4450;SDS011;2238;50.180;9.230;2023-02-26T09:06:18;5.53;;;3.10;;
4450;SDS011;2238;50.180;9.230;2023-02-26T09:09:19;3.40;;;3.10;;
4450;SDS011;2238;50.180;9.230;2023-02-26T09:12:20;3.30;;;3.00;;
4450;SDS011;2238;50.180;9.230;2023-02-26T09:15:20;3.00;;;2.77;;
4450;SDS011;2238;50.180;9.230;2023-02-26T09:18:21;3.07;;;2.87;;
4450;SDS011;2238;50.180;9.230;2023-02-26T09:21:22;2.00;;;1.90;;
4450;SDS011;2238;50.180;9.230;2023-02-26T09:24:22;3.10;;;2.77;;
4450;SDS011;2238;50.180;9.230;2023-02-26T09:27:23;3.23;;;2.93;;
4450;SDS011;2238;50.180;9.230;2023-02-26T09:30:24;3.03;;;2.50;;
4450;SDS011;2238;50.180;9.230;2023-02-26T09:33:24;5.13;;;3.10;;
4450;SDS011;2238;50.180;9.230;2023-02-26T09:36:25;2.80;;;2.60;;
4450;SDS011;2238;50.180;9.230;2023-02-26T09:39:26;4.30;;;2.40;;
4450;SDS011;2238;50.180;9.230;2023-02-26T09:45:51;2.90;;;2.60;;
4450;SDS011;2238;50.180;9.230;2023-02-26T09:49:18;2.40;;;2.20;;
4450;SDS011;2238;50.180;9.230;2023-02-26T09:52:45;6.13;;;3.30;;
4450;SDS011;2238;50.180;9.230;2023-02-26T09:56:00;3.23;;;2.97;;
4450;SDS011;2238;50.180;9.230;2023-02-26T09:59:20;7.77;;;4.20;;
4450;SDS011;2238;50.180;9.230;2023-02-26T10:02:23;5.70;;;3.63;;
4450;SDS011;2238;50.180;9.230;2023-02-26T10:12:33;2.90;;;2.60;;
4450;SDS011;2238;50.180;9.230;2023-02-26T10:15:39;2.00;;;1.90;;
4450;SDS011;2238;50.180;9.230;2023-02-26T10:18:46;2.43;;;2.23;;
4450;SDS011;2238;50.180;9.230;2023-02-26T10:21:59;2.80;;;2.03;;
4450;SDS011;2238;50.180;9.230;2023-02-26T10:28:16;2.60;;;2.07;;
4450;SDS011;2238;50.180;9.230;2023-02-26T10:34:56;2.30;;;2.10;;
4450;SDS011;2238;50.180;9.230;2023-02-26T10:38:05;1.77;;;1.67;;
4450;SDS011;2238;50.180;9.230;2023-02-26T10:41:15;2.63;;;2.50;;
4450;SDS011;2238;50.180;9.230;2023-02-26T10:44:31;6.23;;;4.87;;
4450;SDS011;2238;50.180;9.230;2023-02-26T10:47:44;1.97;;;1.80;;
4450;SDS011;2238;50.180;9.230;2023-02-26T10:50:57;6.30;;;4.13;;
4450;SDS011;2238;50.180;9.230;2023-02-26T10:54:02;2.07;;;1.97;;
4450;SDS011;2238;50.180;9.230;2023-02-26T10:57:17;3.43;;;3.20;;
4450;SDS011;2238;50.180;9.230;2023-02-26T11:00:21;2.00;;;1.90;;
4450;SDS011;2238;50.180;9.230;2023-02-26T11:03:33;2.17;;;2.00;;
4450;SDS011;2238;50.180;9.230;2023-02-26T11:06:37;13.63;;;8.23;;
4450;SDS011;2238;50.180;9.230;2023-02-26T11:09:44;2.07;;;1.97;;
4450;SDS011;2238;50.180;9.230;2023-02-26T11:12:45;2.30;;;2.20;;
4450;SDS011;2238;50.180;9.230;2023-02-26T11:15:47;2.37;;;2.20;;
4450;SDS011;2238;50.180;9.230;2023-02-26T11:18:52;2.20;;;2.10;;
4450;SDS011;2238;50.180;9.230;2023-02-26T11:21:54;2.33;;;2.13;;
4450;SDS011;2238;50.180;9.230;2023-02-26T11:24:55;2.50;;;2.30;;
4450;SDS011;2238;50.180;9.230;2023-02-26T11:28:01;2.60;;;2.50;;
4450;SDS011;2238;50.180;9.230;2023-02-26T11:31:05;2.50;;;2.30;;
4450;SDS011;2238;50.180;9.230;2023-02-26T11:34:10;2.10;;;2.00;;
4450;SDS011;2238;50.180;9.230;2023-02-26T11:37:11;2.70;;;2.33;;
4450;SDS011;2238;50.180;9.230;2023-02-26T11:40:16;2.10;;;1.60;;
4450;SDS011;2238;50.180;9.230;2023-02-26T11:43:21;1.90;;;1.80;;
4450;SDS011;2238;50.180;9.230;2023-02-26T11:46:25;2.60;;;2.47;;
4450;SDS011;2238;50.180;9.230;2023-02-26T11:49:27;3.07;;;2.70;;
4450;SDS011;2238;50.180;9.230;2023-02-26T11:52:31;2.60;;;2.40;;
4450;SDS011;2238;50.180;9.230;2023-02-26T11:55:42;2.33;;;2.23;;
4450;SDS011;2238;50.180;9.230;2023-02-26T11:58:49;2.50;;;2.30;;
4450;SDS011;2238;50.180;9.230;2023-02-26T12:01:52;2.30;;;2.20;;
4450;SDS011;2238;50.180;9.230;2023-02-26T12:04:54;2.00;;;1.90;;
4450;SDS011;2238;50.180;9.230;2023-02-26T12:08:00;2.60;;;2.40;;
4450;SDS011;2238;50.180;9.230;2023-02-26T12:17:54;2.40;;;2.20;;
4450;SDS011;2238;50.180;9.230;2023-02-26T12:24:19;2.07;;;1.90;;
4450;SDS011;2238;50.180;9.230;2023-02-26T12:34:23;3.43;;;2.73;;
4450;SDS011;2238;50.180;9.230;2023-02-26T12:51:21;2.10;;;1.67;;
4450;SDS011;2238;50.180;9.230;2023-02-26T12:57:46;2.43;;;2.20;;
4450;SDS011;2238;50.180;9.230;2023-02-26T13:04:29;4.80;;;3.07;;
4450;SDS011;2238;50.180;9.230;2023-02-26T13:07:48;2.20;;;1.87;;
4450;SDS011;2238;50.180;9.230;2023-02-26T13:17:40;1.83;;;1.73;;
4450;SDS011;2238;50.180;9.230;2023-02-26T13:20:50;3.47;;;1.50;;
4450;SDS011;2238;50.180;9.230;2023-02-26T13:24:01;2.00;;;1.90;;
4450;SDS011;2238;50.180;9.230;2023-02-26T13:27:14;2.73;;;2.53;;
4450;SDS011;2238;50.180;9.230;2023-02-26T13:30:18;1.27;;;1.27;;
4450;SDS011;2238;50.180;9.230;2023-02-26T13:33:40;1.90;;;1.80;;
4450;SDS011;2238;50.180;9.230;2023-02-26T13:36:42;2.23;;;2.03;;
4450;SDS011;2238;50.180;9.230;2023-02-26T13:39:49;1.87;;;1.77;;
4450;SDS011;2238;50.180;9.230;2023-02-26T13:52:35;2.37;;;2.00;;
4450;SDS011;2238;50.180;9.230;2023-02-26T13:55:53;2.30;;;2.03;;
4450;SDS011;2238;50.180;9.230;2023-02-26T14:11:42;1.57;;;1.57;;
4450;SDS011;2238;50.180;9.230;2023-02-26T14:15:17;2.23;;;2.13;;
4450;SDS011;2238;50.180;9.230;2023-02-26T14:21:54;2.60;;;2.50;;
4450;SDS011;2238;50.180;9.230;2023-02-26T14:31:25;2.47;;;2.00;;
4450;SDS011;2238;50.180;9.230;2023-02-26T14:34:46;2.40;;;2.30;;
4450;SDS011;2238;50.180;9.230;2023-02-26T14:44:29;2.00;;;1.90;;
4450;SDS011;2238;50.180;9.230;2023-02-26T14:47:35;2.70;;;2.50;;
4450;SDS011;2238;50.180;9.230;2023-02-26T14:50:52;2.70;;;2.50;;
4450;SDS011;2238;50.180;9.230;2023-02-26T14:54:24;2.70;;;2.50;;
4450;SDS011;2238;50.180;9.230;2023-02-26T14:57:34;2.60;;;2.40;;
4450;SDS011;2238;50.180;9.230;2023-02-26T15:07:19;2.30;;;2.20;;
4450;SDS011;2238;50.180;9.230;2023-02-26T15:13:56;1.80;;;1.70;;
4450;SDS011;2238;50.180;9.230;2023-02-26T15:17:15;4.43;;;3.17;;
4450;SDS011;2238;50.180;9.230;2023-02-26T15:24:02;2.33;;;2.13;;
4450;SDS011;2238;50.180;9.230;2023-02-26T15:27:04;1.97;;;1.90;;
4450;SDS011;2238;50.180;9.230;2023-02-26T15:30:08;4.00;;;2.20;;
4450;SDS011;2238;50.180;9.230;2023-02-26T15:33:13;2.23;;;2.10;;
4450;SDS011;2238;50.180;9.230;2023-02-26T15:36:17;2.53;;;1.97;;
4450;SDS011;2238;50.180;9.230;2023-02-26T15:39:21;2.80;;;2.57;;
4450;SDS011;2238;50.180;9.230;2023-02-26T15:42:28;2.93;;;2.37;;
4450;SDS011;2238;50.180;9.230;2023-02-26T15:45:52;2.17;;;2.03;;
4450;SDS011;2238;50.180;9.230;2023-02-26T15:48:56;2.70;;;2.50;;
4450;SDS011;2238;50.180;9.230;2023-02-26T15:52:01;2.97;;;2.80;;
4450;SDS011;2238;50.180;9.230;2023-02-26T15:55:04;3.63;;;2.80;;
4450;SDS011;2238;50.180;9.230;2023-02-26T15:58:06;2.83;;;2.37;;
4450;SDS011;2238;50.180;9.230;2023-02-26T16:01:07;2.40;;;2.10;;
4450;SDS011;2238;50.180;9.230;2023-02-26T16:04:14;3.27;;;3.07;;
4450;SDS011;2238;50.180;9.230;2023-02-26T16:07:16;2.33;;;2.13;;
4450;SDS011;2238;50.180;9.230;2023-02-26T16:10:25;2.07;;;1.87;;
4450;SDS011;2238;50.180;9.230;2023-02-26T16:13:31;2.77;;;2.67;;
4450;SDS011;2238;50.180;9.230;2023-02-26T16:16:43;2.63;;;2.33;;
4450;SDS011;2238;50.180;9.230;2023-02-26T16:19:47;2.23;;;2.03;;
4450;SDS011;2238;50.180;9.230;2023-02-26T16:22:52;2.47;;;2.37;;
4450;SDS011;2238;50.180;9.230;2023-02-26T16:25:59;5.20;;;2.87;;
4450;SDS011;2238;50.180;9.230;2023-02-26T16:29:03;2.20;;;2.10;;
4450;SDS011;2238;50.180;9.230;2023-02-26T16:32:16;2.73;;;2.53;;
4450;SDS011;2238;50.180;9.230;2023-02-26T16:35:19;2.63;;;2.43;;
4450;SDS011;2238;50.180;9.230;2023-02-26T16:38:30;2.37;;;2.27;;
4450;SDS011;2238;50.180;9.230;2023-02-26T16:42:02;2.90;;;2.67;;
4450;SDS011;2238;50.180;9.230;2023-02-26T16:48:23;11.40;;;8.33;;
4450;SDS011;2238;50.180;9.230;2023-02-26T16:51:29;2.70;;;2.50;;
4450;SDS011;2238;50.180;9.230;2023-02-26T16:54:33;5.83;;;4.67;;
4450;SDS011;2238;50.180;9.230;2023-02-26T16:57:37;3.27;;;3.07;;
4450;SDS011;2238;50.180;9.230;2023-02-26T17:00:44;4.73;;;3.50;;
4450;SDS011;2238;50.180;9.230;2023-02-26T17:03:51;8.40;;;5.33;;
4450;SDS011;2238;50.180;9.230;2023-02-26T17:06:59;3.87;;;3.57;;
4450;SDS011;2238;50.180;9.230;2023-02-26T17:10:15;2.43;;;2.23;;
4450;SDS011;2238;50.180;9.230;2023-02-26T17:13:24;2.23;;;2.03;;
4450;SDS011;2238;50.180;9.230;2023-02-26T17:16:26;3.30;;;3.00;;
4450;SDS011;2238;50.180;9.230;2023-02-26T17:19:27;5.97;;;5.30;;
4450;SDS011;2238;50.180;9.230;2023-02-26T17:22:28;4.27;;;3.80;;
4450;SDS011;2238;50.180;9.230;2023-02-26T17:25:36;2.60;;;2.40;;
4450;SDS011;2238;50.180;9.230;2023-02-26T17:28:40;2.40;;;2.20;;
4450;SDS011;2238;50.180;9.230;2023-02-26T17:31:41;2.43;;;2.23;;
4450;SDS011;2238;50.180;9.230;2023-02-26T17:34:42;4.33;;;3.20;;
4450;SDS011;2238;50.180;9.230;2023-02-26T17:37:43;4.77;;;3.07;;
4450;SDS011;2238;50.180;9.230;2023-02-26T17:40:45;3.10;;;2.80;;
4450;SDS011;2238;50.180;9.230;2023-02-26T17:43:46;2.90;;;2.70;;
4450;SDS011;2238;50.180;9.230;2023-02-26T17:46:47;2.90;;;2.70;;
4450;SDS011;2238;50.180;9.230;2023-02-26T17:49:47;2.40;;;2.20;;
4450;SDS011;2238;50.180;9.230;2023-02-26T17:52:48;5.33;;;3.50;;
4450;SDS011;2238;50.180;9.230;2023-02-26T17:55:49;2.80;;;2.60;;
4450;SDS011;2238;50.180;9.230;2023-02-26T17:58:55;6.17;;;3.77;;
4450;SDS011;2238;50.180;9.230;2023-02-26T18:01:57;5.60;;;4.73;;
4450;SDS011;2238;50.180;9.230;2023-02-26T18:04:58;3.30;;;3.10;;
4450;SDS011;2238;50.180;9.230;2023-02-26T18:07:59;3.73;;;3.17;;
4450;SDS011;2238;50.180;9.230;2023-02-26T18:10:59;2.33;;;2.10;;
4450;SDS011;2238;50.180;9.230;2023-02-26T18:14:01;2.03;;;1.90;;
4450;SDS011;2238;50.180;9.230;2023-02-26T18:17:01;2.17;;;2.00;;
4450;SDS011;2238;50.180;9.230;2023-02-26T18:20:03;4.03;;;3.60;;
4450;SDS011;2238;50.180;9.230;2023-02-26T18:23:06;3.07;;;2.87;;
4450;SDS011;2238;50.180;9.230;2023-02-26T18:26:08;8.00;;;4.03;;
4450;SDS011;2238;50.180;9.230;2023-02-26T18:29:10;3.67;;;3.33;;
4450;SDS011;2238;50.180;9.230;2023-02-26T18:32:15;3.87;;;2.60;;
4450;SDS011;2238;50.180;9.230;2023-02-26T18:35:17;2.73;;;2.47;;
4450;SDS011;2238;50.180;9.230;2023-02-26T18:38:18;2.50;;;2.30;;
4450;SDS011;2238;50.180;9.230;2023-02-26T18:41:21;3.43;;;2.70;;
4450;SDS011;2238;50.180;9.230;2023-02-26T18:44:21;2.63;;;2.50;;
4450;SDS011;2238;50.180;9.230;2023-02-26T18:47:22;2.63;;;2.40;;
4450;SDS011;2238;50.180;9.230;2023-02-26T18:50:22;7.23;;;4.20;;
4450;SDS011;2238;50.180;9.230;2023-02-26T18:53:23;4.50;;;4.03;;
4450;SDS011;2238;50.180;9.230;2023-02-26T18:56:25;5.37;;;4.07;;
4450;SDS011;2238;50.180;9.230;2023-02-26T18:59:26;4.33;;;3.57;;
4450;SDS011;2238;50.180;9.230;2023-02-26T19:02:27;3.53;;;3.33;;
4450;SDS011;2238;50.180;9.230;2023-02-26T19:05:27;5.20;;;3.20;;
4450;SDS011;2238;50.180;9.230;2023-02-26T19:08:28;4.40;;;3.37;;
4450;SDS011;2238;50.180;9.230;2023-02-26T19:11:30;8.50;;;4.20;;
4450;SDS011;2238;50.180;9.230;2023-02-26T19:14:31;4.47;;;4.10;;
4450;SDS011;2238;50.180;9.230;2023-02-26T19:17:31;4.60;;;4.20;;
4450;SDS011;2238;50.180;9.230;2023-02-26T19:20:32;5.00;;;4.47;;
4450;SDS011;2238;50.180;9.230;2023-02-26T19:23:32;5.70;;;4.90;;
4450;SDS011;2238;50.180;9.230;2023-02-26T19:26:33;6.77;;;5.70;;
4450;SDS011;2238;50.180;9.230;2023-02-26T19:29:35;9.50;;;5.90;;
4450;SDS011;2238;50.180;9.230;2023-02-26T19:32:36;10.63;;;6.70;;
4450;SDS011;2238;50.180;9.230;2023-02-26T19:35:36;10.47;;;6.43;;
4450;SDS011;2238;50.180;9.230;2023-02-26T19:38:38;8.20;;;6.83;;
4450;SDS011;2238;50.180;9.230;2023-02-26T19:41:38;12.80;;;9.93;;
4450;SDS011;2238;50.180;9.230;2023-02-26T19:44:39;8.63;;;7.47;;
4450;SDS011;2238;50.180;9.230;2023-02-26T19:47:39;10.03;;;6.70;;
4450;SDS011;2238;50.180;9.230;2023-02-26T19:50:40;10.63;;;7.30;;
4450;SDS011;2238;50.180;9.230;2023-02-26T19:53:41;13.17;;;7.93;;
4450;SDS011;2238;50.180;9.230;2023-02-26T19:56:42;11.70;;;7.60;;
4450;SDS011;2238;50.180;9.230;2023-02-26T19:59:43;13.00;;;7.20;;
4450;SDS011;2238;50.180;9.230;2023-02-26T20:02:45;10.43;;;8.50;;
4450;SDS011;2238;50.180;9.230;2023-02-26T20:05:45;9.87;;;7.07;;
4450;SDS011;2238;50.180;9.230;2023-02-26T20:08:46;11.13;;;8.10;;
4450;SDS011;2238;50.180;9.230;2023-02-26T20:11:47;8.50;;;6.53;;
4450;SDS011;2238;50.180;9.230;2023-02-26T20:14:48;9.33;;;7.43;;
4450;SDS011;2238;50.180;9.230;2023-02-26T20:17:48;10.60;;;7.10;;
4450;SDS011;2238;50.180;9.230;2023-02-26T20:20:49;10.33;;;9.23;;
4450;SDS011;2238;50.180;9.230;2023-02-26T20:23:49;8.37;;;7.47;;
4450;SDS011;2238;50.180;9.230;2023-02-26T20:26:50;12.27;;;7.30;;
4450;SDS011;2238;50.180;9.230;2023-02-26T20:29:51;8.50;;;7.07;;
4450;SDS011;2238;50.180;9.230;2023-02-26T20:32:52;10.30;;;7.17;;
4450;SDS011;2238;50.180;9.230;2023-02-26T20:35:53;11.93;;;9.00;;
4450;SDS011;2238;50.180;9.230;2023-02-26T20:38:53;11.07;;;7.03;;
4450;SDS011;2238;50.180;9.230;2023-02-26T20:41:54;7.50;;;6.27;;
4450;SDS011;2238;50.180;9.230;2023-02-26T20:44:54;9.23;;;7.30;;
4450;SDS011;2238;50.180;9.230;2023-02-26T20:47:55;15.40;;;8.07;;
4450;SDS011;2238;50.180;9.230;2023-02-26T20:51:00;9.40;;;7.63;;
4450;SDS011;2238;50.180;9.230;2023-02-26T20:54:02;11.00;;;8.07;;
4450;SDS011;2238;50.180;9.230;2023-02-26T20:57:02;11.67;;;7.23;;
4450;SDS011;2238;50.180;9.230;2023-02-26T21:00:03;10.30;;;8.00;;
4450;SDS011;2238;50.180;9.230;2023-02-26T21:03:09;11.80;;;7.83;;
4450;SDS011;2238;50.180;9.230;2023-02-26T21:06:10;10.13;;;7.80;;
4450;SDS011;2238;50.180;9.230;2023-02-26T21:09:10;11.73;;;8.17;;
4450;SDS011;2238;50.180;9.230;2023-02-26T21:12:11;11.57;;;8.90;;
4450;SDS011;2238;50.180;9.230;2023-02-26T21:15:12;11.30;;;8.13;;
4450;SDS011;2238;50.180;9.230;2023-02-26T21:18:13;11.30;;;8.60;;
4450;SDS011;2238;50.180;9.230;2023-02-26T21:21:14;13.20;;;9.97;;
4450;SDS011;2238;50.180;9.230;2023-02-26T21:24:14;13.83;;;9.70;;
4450;SDS011;2238;50.180;9.230;2023-02-26T21:27:15;15.30;;;11.67;;
4450;SDS011;2238;50.180;9.230;2023-02-26T21:30:16;13.63;;;10.90;;
4450;SDS011;2238;50.180;9.230;2023-02-26T21:33:17;12.37;;;9.33;;
4450;SDS011;2238;50.180;9.230;2023-02-26T21:36:18;13.20;;;10.50;;
4450;SDS011;2238;50.180;9.230;2023-02-26T21:39:18;14.80;;;10.50;;